sensor_id;sensor_type;location;lat;lon;timestamp;temperature;humidity
26212;DHT22;13951;49.516;6.094;2023-07-31T00:00:45;19.00;99.90
26212;DHT22;13951;49.516;6.094;2023-07-31T00:03:19;19.00;99.90
26212;DHT22;13951;49.516;6.094;2023-07-31T00:05:52;19.00;99.90
26212;DHT22;13951;49.516;6.094;2023-07-31T00:08:25;19.00;99.90
26212;DHT22;13951;49.516;6.094;2023-07-31T00:10:58;19.00;99.90
26212;DHT22;13951;49.516;6.094;2023-07-31T00:13:32;19.00;99.90
26212;DHT22;13951;49.516;6.094;2023-07-31T00:16:06;18.90;99.90
26212;DHT22;13951;49.516;6.094;2023-07-31T00:18:39;18.90;99.90
26212;DHT22;13951;49.516;6.094;2023-07-31T00:21:12;19.00;99.90
26212;DHT22;13951;49.516;6.094;2023-07-31T00:23:45;18.90;99.90
26212;DHT22;13951;49.516;6.094;2023-07-31T00:26:19;18.90;99.90
26212;DHT22;13951;49.516;6.094;2023-07-31T00:28:52;18.90;99.90
26212;DHT22;13951;49.516;6.094;2023-07-31T00:31:26;18.90;99.90
26212;DHT22;13951;49.516;6.094;2023-07-31T00:34:00;18.80;99.90
26212;DHT22;13951;49.516;6.094;2023-07-31T00:36:33;18.80;99.90
26212;DHT22;13951;49.516;6.094;2023-07-31T00:39:06;18.80;99.90
26212;DHT22;13951;49.516;6.094;2023-07-31T00:41:40;18.80;99.90
26212;DHT22;13951;49.516;6.094;2023-07-31T00:44:15;18.80;99.90
26212;DHT22;13951;49.516;6.094;2023-07-31T00:46:48;18.80;99.90
26212;DHT22;13951;49.516;6.094;2023-07-31T00:49:22;18.80;99.90
26212;DHT22;13951;49.516;6.094;2023-07-31T00:51:56;18.80;99.90
26212;DHT22;13951;49.516;6.094;2023-07-31T00:54:30;18.80;99.90
26212;DHT22;13951;49.516;6.094;2023-07-31T00:57:05;18.80;99.90
26212;DHT22;13951;49.516;6.094;2023-07-31T00:59:41;18.80;99.90
26212;DHT22;13951;49.516;6.094;2023-07-31T01:02:14;18.80;99.90
26212;DHT22;13951;49.516;6.094;2023-07-31T01:04:47;18.80;99.90
26212;DHT22;13951;49.516;6.094;2023-07-31T01:07:30;18.70;99.90
26212;DHT22;13951;49.516;6.094;2023-07-31T01:10:11;18.80;99.90
26212;DHT22;13951;49.516;6.094;2023-07-31T01:12:50;18.70;99.90
26212;DHT22;13951;49.516;6.094;2023-07-31T01:15:25;18.70;99.90
26212;DHT22;13951;49.516;6.094;2023-07-31T01:17:59;18.70;99.90
26212;DHT22;13951;49.516;6.094;2023-07-31T01:20:34;18.70;99.90
26212;DHT22;13951;49.516;6.094;2023-07-31T01:23:47;18.70;99.90
26212;DHT22;13951;49.516;6.094;2023-07-31T01:26:28;18.70;99.90
26212;DHT22;13951;49.516;6.094;2023-07-31T01:31:49;18.70;99.90
26212;DHT22;13951;49.516;6.094;2023-07-31T01:34:23;18.70;99.90
26212;DHT22;13951;49.516;6.094;2023-07-31T01:36:58;18.60;99.90
26212;DHT22;13951;49.516;6.094;2023-07-31T01:39:31;18.60;99.90
26212;DHT22;13951;49.516;6.094;2023-07-31T01:42:04;18.60;99.90
26212;DHT22;13951;49.516;6.094;2023-07-31T01:44:39;18.60;99.90
26212;DHT22;13951;49.516;6.094;2023-07-31T01:47:12;18.60;99.90
26212;DHT22;13951;49.516;6.094;2023-07-31T01:49:46;18.60;99.90
26212;DHT22;13951;49.516;6.094;2023-07-31T01:52:19;18.50;99.90
26212;DHT22;13951;49.516;6.094;2023-07-31T01:54:52;18.50;99.90
26212;DHT22;13951;49.516;6.094;2023-07-31T01:57:25;18.50;99.90
26212;DHT22;13951;49.516;6.094;2023-07-31T01:59:58;18.50;99.90
26212;DHT22;13951;49.516;6.094;2023-07-31T02:02:31;18.50;99.90
26212;DHT22;13951;49.516;6.094;2023-07-31T02:05:06;18.60;99.90
26212;DHT22;13951;49.516;6.094;2023-07-31T02:07:39;18.50;99.90
26212;DHT22;13951;49.516;6.094;2023-07-31T02:10:12;18.50;99.90
26212;DHT22;13951;49.516;6.094;2023-07-31T02:12:46;18.50;99.90
26212;DHT22;13951;49.516;6.094;2023-07-31T02:53:45;18.40;99.90
26212;DHT22;13951;49.516;6.094;2023-07-31T02:56:19;18.40;99.90
26212;DHT22;13951;49.516;6.094;2023-07-31T02:58:53;18.40;99.90
26212;DHT22;13951;49.516;6.094;2023-07-31T03:01:27;18.30;99.90
26212;DHT22;13951;49.516;6.094;2023-07-31T03:04:02;18.20;99.90
26212;DHT22;13951;49.516;6.094;2023-07-31T03:06:35;18.20;99.90
26212;DHT22;13951;49.516;6.094;2023-07-31T03:09:09;18.10;99.90
26212;DHT22;13951;49.516;6.094;2023-07-31T03:11:42;18.10;99.90
26212;DHT22;13951;49.516;6.094;2023-07-31T03:14:15;18.10;99.90
26212;DHT22;13951;49.516;6.094;2023-07-31T03:16:50;18.00;99.90
26212;DHT22;13951;49.516;6.094;2023-07-31T03:19:23;18.00;99.90
26212;DHT22;13951;49.516;6.094;2023-07-31T03:21:56;18.00;99.90
26212;DHT22;13951;49.516;6.094;2023-07-31T03:24:29;17.90;99.90
26212;DHT22;13951;49.516;6.094;2023-07-31T03:27:02;17.90;99.90
26212;DHT22;13951;49.516;6.094;2023-07-31T03:29:35;17.90;99.90
26212;DHT22;13951;49.516;6.094;2023-07-31T03:32:08;17.90;99.90
26212;DHT22;13951;49.516;6.094;2023-07-31T03:34:42;17.90;99.90
26212;DHT22;13951;49.516;6.094;2023-07-31T03:37:15;17.90;99.90
26212;DHT22;13951;49.516;6.094;2023-07-31T03:39:48;17.90;99.90
26212;DHT22;13951;49.516;6.094;2023-07-31T03:42:25;17.90;99.90
26212;DHT22;13951;49.516;6.094;2023-07-31T03:44:59;17.90;99.90
26212;DHT22;13951;49.516;6.094;2023-07-31T03:47:32;17.80;99.90
26212;DHT22;13951;49.516;6.094;2023-07-31T03:50:06;17.80;99.90
26212;DHT22;13951;49.516;6.094;2023-07-31T03:52:39;17.80;99.90
26212;DHT22;13951;49.516;6.094;2023-07-31T03:55:12;17.80;99.90
26212;DHT22;13951;49.516;6.094;2023-07-31T03:57:45;17.80;99.90
26212;DHT22;13951;49.516;6.094;2023-07-31T04:00:23;17.80;99.90
26212;DHT22;13951;49.516;6.094;2023-07-31T04:02:56;17.80;99.90
26212;DHT22;13951;49.516;6.094;2023-07-31T04:05:31;17.80;99.90
26212;DHT22;13951;49.516;6.094;2023-07-31T04:08:06;17.80;99.90
26212;DHT22;13951;49.516;6.094;2023-07-31T04:10:40;17.70;99.90
26212;DHT22;13951;49.516;6.094;2023-07-31T04:13:13;17.60;99.90
26212;DHT22;13951;49.516;6.094;2023-07-31T04:15:50;17.60;99.90
26212;DHT22;13951;49.516;6.094;2023-07-31T04:18:25;17.50;99.90
26212;DHT22;13951;49.516;6.094;2023-07-31T04:21:05;17.50;99.90
26212;DHT22;13951;49.516;6.094;2023-07-31T04:23:38;17.50;99.90
26212;DHT22;13951;49.516;6.094;2023-07-31T04:26:12;17.50;99.90
26212;DHT22;13951;49.516;6.094;2023-07-31T04:28:45;17.50;99.90
26212;DHT22;13951;49.516;6.094;2023-07-31T04:31:18;17.50;99.90
26212;DHT22;13951;49.516;6.094;2023-07-31T04:33:51;17.40;99.90
26212;DHT22;13951;49.516;6.094;2023-07-31T04:36:25;17.40;99.90
26212;DHT22;13951;49.516;6.094;2023-07-31T04:38:59;17.40;99.90
26212;DHT22;13951;49.516;6.094;2023-07-31T04:41:34;17.30;99.90
26212;DHT22;13951;49.516;6.094;2023-07-31T04:44:09;17.40;99.90
26212;DHT22;13951;49.516;6.094;2023-07-31T04:46:44;17.40;99.90
26212;DHT22;13951;49.516;6.094;2023-07-31T04:49:19;17.40;99.90
26212;DHT22;13951;49.516;6.094;2023-07-31T04:51:52;17.30;99.90
26212;DHT22;13951;49.516;6.094;2023-07-31T04:54:25;17.40;99.90
26212;DHT22;13951;49.516;6.094;2023-07-31T04:56:59;17.30;99.90
26212;DHT22;13951;49.516;6.094;2023-07-31T04:59:32;17.30;99.90
26212;DHT22;13951;49.516;6.094;2023-07-31T05:02:07;17.40;99.90
26212;DHT22;13951;49.516;6.094;2023-07-31T05:04:40;17.40;99.90
26212;DHT22;13951;49.516;6.094;2023-07-31T05:07:13;17.40;99.90
26212;DHT22;13951;49.516;6.094;2023-07-31T05:09:46;17.40;99.90
26212;DHT22;13951;49.516;6.094;2023-07-31T05:12:21;17.40;99.90
26212;DHT22;13951;49.516;6.094;2023-07-31T05:14:54;17.30;99.90
26212;DHT22;13951;49.516;6.094;2023-07-31T05:17:27;17.30;99.90
26212;DHT22;13951;49.516;6.094;2023-07-31T05:20:00;17.40;99.90
26212;DHT22;13951;49.516;6.094;2023-07-31T05:22:33;17.40;99.90
26212;DHT22;13951;49.516;6.094;2023-07-31T05:25:07;17.40;99.90
26212;DHT22;13951;49.516;6.094;2023-07-31T05:27:40;17.40;99.90
26212;DHT22;13951;49.516;6.094;2023-07-31T05:30:13;17.40;99.90
26212;DHT22;13951;49.516;6.094;2023-07-31T05:32:46;17.40;99.90
26212;DHT22;13951;49.516;6.094;2023-07-31T05:35:20;17.40;99.90
26212;DHT22;13951;49.516;6.094;2023-07-31T05:37:53;17.40;99.90
26212;DHT22;13951;49.516;6.094;2023-07-31T05:40:27;17.50;99.90
26212;DHT22;13951;49.516;6.094;2023-07-31T05:42:59;17.50;99.90
26212;DHT22;13951;49.516;6.094;2023-07-31T05:45:33;17.70;99.90
26212;DHT22;13951;49.516;6.094;2023-07-31T05:48:06;17.80;99.90
26212;DHT22;13951;49.516;6.094;2023-07-31T05:50:41;17.90;99.90
26212;DHT22;13951;49.516;6.094;2023-07-31T05:53:14;18.00;99.90
26212;DHT22;13951;49.516;6.094;2023-07-31T05:55:48;18.00;99.90
26212;DHT22;13951;49.516;6.094;2023-07-31T05:58:22;18.00;99.90
26212;DHT22;13951;49.516;6.094;2023-07-31T06:00:54;18.10;99.90
26212;DHT22;13951;49.516;6.094;2023-07-31T06:03:27;18.20;99.90
26212;DHT22;13951;49.516;6.094;2023-07-31T06:06:01;18.20;99.90
26212;DHT22;13951;49.516;6.094;2023-07-31T06:08:35;18.30;99.90
26212;DHT22;13951;49.516;6.094;2023-07-31T06:11:09;18.40;99.90
26212;DHT22;13951;49.516;6.094;2023-07-31T06:13:43;18.30;99.90
26212;DHT22;13951;49.516;6.094;2023-07-31T06:16:17;18.30;99.90
26212;DHT22;13951;49.516;6.094;2023-07-31T06:18:50;18.30;99.90
26212;DHT22;13951;49.516;6.094;2023-07-31T06:21:23;18.20;99.90
26212;DHT22;13951;49.516;6.094;2023-07-31T06:23:57;18.20;99.90
26212;DHT22;13951;49.516;6.094;2023-07-31T06:26:30;18.20;99.90
26212;DHT22;13951;49.516;6.094;2023-07-31T06:29:03;18.20;99.90
26212;DHT22;13951;49.516;6.094;2023-07-31T06:31:36;18.20;99.90
26212;DHT22;13951;49.516;6.094;2023-07-31T06:34:09;18.20;99.90
26212;DHT22;13951;49.516;6.094;2023-07-31T06:36:43;18.20;99.90
26212;DHT22;13951;49.516;6.094;2023-07-31T06:39:16;18.30;99.90
26212;DHT22;13951;49.516;6.094;2023-07-31T06:41:50;18.20;99.90
26212;DHT22;13951;49.516;6.094;2023-07-31T06:44:23;18.20;99.90
26212;DHT22;13951;49.516;6.094;2023-07-31T06:46:56;18.20;99.90
26212;DHT22;13951;49.516;6.094;2023-07-31T06:49:29;18.20;99.90
26212;DHT22;13951;49.516;6.094;2023-07-31T06:52:03;18.10;99.90
26212;DHT22;13951;49.516;6.094;2023-07-31T06:54:36;18.20;99.90
26212;DHT22;13951;49.516;6.094;2023-07-31T06:57:09;18.20;99.90
26212;DHT22;13951;49.516;6.094;2023-07-31T06:59:42;18.30;99.90
26212;DHT22;13951;49.516;6.094;2023-07-31T07:02:16;18.40;99.90
26212;DHT22;13951;49.516;6.094;2023-07-31T07:04:49;18.50;99.90
26212;DHT22;13951;49.516;6.094;2023-07-31T07:07:23;18.60;99.90
26212;DHT22;13951;49.516;6.094;2023-07-31T07:09:56;18.60;99.90
26212;DHT22;13951;49.516;6.094;2023-07-31T07:12:30;18.60;99.90
26212;DHT22;13951;49.516;6.094;2023-07-31T07:15:04;18.60;99.90
26212;DHT22;13951;49.516;6.094;2023-07-31T07:17:37;18.70;99.90
26212;DHT22;13951;49.516;6.094;2023-07-31T07:20:13;18.80;99.90
26212;DHT22;13951;49.516;6.094;2023-07-31T07:22:47;18.90;99.90
26212;DHT22;13951;49.516;6.094;2023-07-31T07:25:20;18.90;99.90
26212;DHT22;13951;49.516;6.094;2023-07-31T07:27:53;18.90;99.90
26212;DHT22;13951;49.516;6.094;2023-07-31T07:30:26;18.90;99.90
26212;DHT22;13951;49.516;6.094;2023-07-31T07:33:00;18.90;99.90
26212;DHT22;13951;49.516;6.094;2023-07-31T07:35:33;19.00;99.90
26212;DHT22;13951;49.516;6.094;2023-07-31T07:38:07;19.10;99.90
26212;DHT22;13951;49.516;6.094;2023-07-31T07:40:40;19.20;99.90
26212;DHT22;13951;49.516;6.094;2023-07-31T07:43:13;19.30;99.90
26212;DHT22;13951;49.516;6.094;2023-07-31T07:45:46;19.40;99.90
26212;DHT22;13951;49.516;6.094;2023-07-31T07:48:20;19.50;99.90
26212;DHT22;13951;49.516;6.094;2023-07-31T07:50:53;19.60;99.90
26212;DHT22;13951;49.516;6.094;2023-07-31T07:53:26;19.60;99.90
26212;DHT22;13951;49.516;6.094;2023-07-31T07:55:59;19.80;99.90
26212;DHT22;13951;49.516;6.094;2023-07-31T07:58:32;20.00;99.90
26212;DHT22;13951;49.516;6.094;2023-07-31T08:01:06;20.10;99.90
26212;DHT22;13951;49.516;6.094;2023-07-31T08:03:40;20.20;99.90
26212;DHT22;13951;49.516;6.094;2023-07-31T08:06:14;20.30;99.90
26212;DHT22;13951;49.516;6.094;2023-07-31T08:08:47;20.30;99.90
26212;DHT22;13951;49.516;6.094;2023-07-31T08:11:22;20.30;99.90
26212;DHT22;13951;49.516;6.094;2023-07-31T08:13:56;20.30;99.90
26212;DHT22;13951;49.516;6.094;2023-07-31T08:16:29;20.30;99.90
26212;DHT22;13951;49.516;6.094;2023-07-31T08:19:02;20.20;99.90
26212;DHT22;13951;49.516;6.094;2023-07-31T08:21:35;20.40;99.90
26212;DHT22;13951;49.516;6.094;2023-07-31T08:24:08;20.50;99.90
26212;DHT22;13951;49.516;6.094;2023-07-31T08:26:42;20.50;99.90
26212;DHT22;13951;49.516;6.094;2023-07-31T08:29:15;20.50;99.90
26212;DHT22;13951;49.516;6.094;2023-07-31T08:31:48;20.50;99.90
26212;DHT22;13951;49.516;6.094;2023-07-31T08:34:22;20.50;99.90
26212;DHT22;13951;49.516;6.094;2023-07-31T08:36:56;20.50;99.90
26212;DHT22;13951;49.516;6.094;2023-07-31T08:39:29;20.50;99.90
26212;DHT22;13951;49.516;6.094;2023-07-31T08:42:02;20.50;99.90
26212;DHT22;13951;49.516;6.094;2023-07-31T08:44:37;20.40;99.90
26212;DHT22;13951;49.516;6.094;2023-07-31T08:47:13;20.40;99.90
26212;DHT22;13951;49.516;6.094;2023-07-31T08:49:47;20.30;99.90
26212;DHT22;13951;49.516;6.094;2023-07-31T08:52:21;20.20;99.90
26212;DHT22;13951;49.516;6.094;2023-07-31T08:54:54;20.30;99.90
26212;DHT22;13951;49.516;6.094;2023-07-31T08:57:28;20.20;99.90
26212;DHT22;13951;49.516;6.094;2023-07-31T09:00:02;20.10;99.90
26212;DHT22;13951;49.516;6.094;2023-07-31T09:02:54;20.10;99.90
26212;DHT22;13951;49.516;6.094;2023-07-31T09:05:31;20.10;99.90
26212;DHT22;13951;49.516;6.094;2023-07-31T09:08:04;20.20;99.90
26212;DHT22;13951;49.516;6.094;2023-07-31T09:10:45;20.10;99.90
26212;DHT22;13951;49.516;6.094;2023-07-31T09:13:23;20.10;99.90
26212;DHT22;13951;49.516;6.094;2023-07-31T09:15:57;20.10;99.90
26212;DHT22;13951;49.516;6.094;2023-07-31T09:18:30;20.20;99.90
26212;DHT22;13951;49.516;6.094;2023-07-31T09:21:04;20.20;99.90
26212;DHT22;13951;49.516;6.094;2023-07-31T09:23:46;20.10;99.90
26212;DHT22;13951;49.516;6.094;2023-07-31T09:26:34;20.20;99.90
26212;DHT22;13951;49.516;6.094;2023-07-31T09:29:18;20.20;99.90
26212;DHT22;13951;49.516;6.094;2023-07-31T09:31:53;20.20;99.90
26212;DHT22;13951;49.516;6.094;2023-07-31T09:34:37;20.20;99.90
26212;DHT22;13951;49.516;6.094;2023-07-31T09:37:11;20.20;99.90
26212;DHT22;13951;49.516;6.094;2023-07-31T09:39:48;20.30;99.90
26212;DHT22;13951;49.516;6.094;2023-07-31T09:42:27;20.20;99.90
26212;DHT22;13951;49.516;6.094;2023-07-31T09:45:08;20.20;99.90
26212;DHT22;13951;49.516;6.094;2023-07-31T09:47:46;20.20;99.90
26212;DHT22;13951;49.516;6.094;2023-07-31T09:50:23;20.20;99.90
26212;DHT22;13951;49.516;6.094;2023-07-31T09:52:57;20.20;99.90
26212;DHT22;13951;49.516;6.094;2023-07-31T09:55:30;20.10;99.90
26212;DHT22;13951;49.516;6.094;2023-07-31T09:58:06;20.00;99.90
26212;DHT22;13951;49.516;6.094;2023-07-31T10:00:40;19.90;99.90
26212;DHT22;13951;49.516;6.094;2023-07-31T10:03:14;19.90;99.90
26212;DHT22;13951;49.516;6.094;2023-07-31T10:05:50;19.90;99.90
26212;DHT22;13951;49.516;6.094;2023-07-31T10:08:32;19.80;99.90
26212;DHT22;13951;49.516;6.094;2023-07-31T10:11:09;19.80;99.90
26212;DHT22;13951;49.516;6.094;2023-07-31T10:13:43;19.80;99.90
26212;DHT22;13951;49.516;6.094;2023-07-31T10:16:17;19.80;99.90
26212;DHT22;13951;49.516;6.094;2023-07-31T10:18:51;19.70;99.90
26212;DHT22;13951;49.516;6.094;2023-07-31T10:21:25;19.70;99.90
26212;DHT22;13951;49.516;6.094;2023-07-31T10:23:59;19.70;99.90
26212;DHT22;13951;49.516;6.094;2023-07-31T10:26:32;19.70;99.90
26212;DHT22;13951;49.516;6.094;2023-07-31T10:29:08;19.70;99.90
26212;DHT22;13951;49.516;6.094;2023-07-31T10:31:45;19.70;99.90
26212;DHT22;13951;49.516;6.094;2023-07-31T10:34:19;19.70;99.90
26212;DHT22;13951;49.516;6.094;2023-07-31T10:37:25;19.60;99.90
26212;DHT22;13951;49.516;6.094;2023-07-31T10:40:02;19.60;99.90
26212;DHT22;13951;49.516;6.094;2023-07-31T10:42:37;19.60;99.90
26212;DHT22;13951;49.516;6.094;2023-07-31T10:45:12;19.70;99.90
26212;DHT22;13951;49.516;6.094;2023-07-31T10:47:46;19.70;99.90
26212;DHT22;13951;49.516;6.094;2023-07-31T10:50:22;19.70;99.90
26212;DHT22;13951;49.516;6.094;2023-07-31T10:52:57;19.70;99.90
26212;DHT22;13951;49.516;6.094;2023-07-31T10:55:38;19.60;99.90
26212;DHT22;13951;49.516;6.094;2023-07-31T10:58:12;19.60;99.90
26212;DHT22;13951;49.516;6.094;2023-07-31T11:03:57;19.50;99.90
26212;DHT22;13951;49.516;6.094;2023-07-31T11:07:48;19.50;99.90
26212;DHT22;13951;49.516;6.094;2023-07-31T11:11:43;19.60;99.90
26212;DHT22;13951;49.516;6.094;2023-07-31T11:15:05;19.60;99.90
26212;DHT22;13951;49.516;6.094;2023-07-31T11:18:20;19.60;99.90
26212;DHT22;13951;49.516;6.094;2023-07-31T11:21:53;19.60;99.90
26212;DHT22;13951;49.516;6.094;2023-07-31T11:30:02;19.80;99.90
26212;DHT22;13951;49.516;6.094;2023-07-31T16:05:39;19.00;99.90
26212;DHT22;13951;49.516;6.094;2023-07-31T16:09:45;18.90;99.90
26212;DHT22;13951;49.516;6.094;2023-07-31T16:13:57;18.90;99.90
26212;DHT22;13951;49.516;6.094;2023-07-31T16:17:30;18.80;99.90
26212;DHT22;13951;49.516;6.094;2023-07-31T17:39:35;18.80;99.90
26212;DHT22;13951;49.516;6.094;2023-07-31T17:43:02;18.80;99.90
26212;DHT22;13951;49.516;6.094;2023-07-31T17:52:56;18.70;99.90
26212;DHT22;13951;49.516;6.094;2023-07-31T17:56:36;18.70;99.90
26212;DHT22;13951;49.516;6.094;2023-07-31T17:59:58;18.70;99.90
26212;DHT22;13951;49.516;6.094;2023-07-31T18:02:39;18.70;99.90
26212;DHT22;13951;49.516;6.094;2023-07-31T18:05:12;18.60;99.90
26212;DHT22;13951;49.516;6.094;2023-07-31T18:07:45;18.60;99.90
26212;DHT22;13951;49.516;6.094;2023-07-31T18:10:18;18.60;99.90
26212;DHT22;13951;49.516;6.094;2023-07-31T18:12:54;18.50;99.90
26212;DHT22;13951;49.516;6.094;2023-07-31T18:15:27;18.50;99.90
26212;DHT22;13951;49.516;6.094;2023-07-31T18:18:00;18.40;99.90
26212;DHT22;13951;49.516;6.094;2023-07-31T18:20:35;18.40;99.90
26212;DHT22;13951;49.516;6.094;2023-07-31T18:23:08;18.30;99.90
26212;DHT22;13951;49.516;6.094;2023-07-31T18:25:41;18.30;99.90
26212;DHT22;13951;49.516;6.094;2023-07-31T18:28:14;18.20;99.90
26212;DHT22;13951;49.516;6.094;2023-07-31T18:30:47;18.20;99.90
26212;DHT22;13951;49.516;6.094;2023-07-31T18:33:20;18.10;99.90
26212;DHT22;13951;49.516;6.094;2023-07-31T18:35:53;18.10;99.90
26212;DHT22;13951;49.516;6.094;2023-07-31T18:38:26;18.10;99.90
26212;DHT22;13951;49.516;6.094;2023-07-31T18:41:05;18.10;99.90
26212;DHT22;13951;49.516;6.094;2023-07-31T18:43:39;18.10;99.90
26212;DHT22;13951;49.516;6.094;2023-07-31T18:46:12;18.10;99.90
26212;DHT22;13951;49.516;6.094;2023-07-31T18:48:45;18.00;99.90
26212;DHT22;13951;49.516;6.094;2023-07-31T18:51:18;18.00;99.90
26212;DHT22;13951;49.516;6.094;2023-07-31T18:53:57;18.00;99.90
26212;DHT22;13951;49.516;6.094;2023-07-31T19:00:16;17.90;99.90
26212;DHT22;13951;49.516;6.094;2023-07-31T19:03:07;17.90;99.90
26212;DHT22;13951;49.516;6.094;2023-07-31T19:06:06;17.90;99.90
26212;DHT22;13951;49.516;6.094;2023-07-31T19:09:02;17.90;99.90
26212;DHT22;13951;49.516;6.094;2023-07-31T19:12:06;17.90;99.90
26212;DHT22;13951;49.516;6.094;2023-07-31T19:14:41;17.80;99.90
26212;DHT22;13951;49.516;6.094;2023-07-31T19:17:33;17.80;99.90
26212;DHT22;13951;49.516;6.094;2023-07-31T19:20:14;17.80;99.90
26212;DHT22;13951;49.516;6.094;2023-07-31T19:22:54;17.80;99.90
26212;DHT22;13951;49.516;6.094;2023-07-31T19:26:28;17.80;99.90
26212;DHT22;13951;49.516;6.094;2023-07-31T19:29:13;17.80;99.90
26212;DHT22;13951;49.516;6.094;2023-07-31T19:32:15;17.80;99.90
26212;DHT22;13951;49.516;6.094;2023-07-31T19:34:52;17.70;99.90
26212;DHT22;13951;49.516;6.094;2023-07-31T19:37:57;17.60;99.90
26212;DHT22;13951;49.516;6.094;2023-07-31T19:40:54;17.60;99.90
26212;DHT22;13951;49.516;6.094;2023-07-31T19:43:41;17.60;99.90
26212;DHT22;13951;49.516;6.094;2023-07-31T19:46:14;17.60;99.90
26212;DHT22;13951;49.516;6.094;2023-07-31T19:48:47;17.50;99.90
26212;DHT22;13951;49.516;6.094;2023-07-31T19:51:21;17.50;99.90
26212;DHT22;13951;49.516;6.094;2023-07-31T19:53:54;17.50;99.90
26212;DHT22;13951;49.516;6.094;2023-07-31T19:56:27;17.50;99.90
26212;DHT22;13951;49.516;6.094;2023-07-31T19:59:02;17.50;99.90
26212;DHT22;13951;49.516;6.094;2023-07-31T20:01:35;17.50;99.90
26212;DHT22;13951;49.516;6.094;2023-07-31T20:04:08;17.40;99.90
26212;DHT22;13951;49.516;6.094;2023-07-31T20:06:41;17.40;99.90
26212;DHT22;13951;49.516;6.094;2023-07-31T20:09:15;17.40;99.90
26212;DHT22;13951;49.516;6.094;2023-07-31T20:11:48;17.40;99.90
26212;DHT22;13951;49.516;6.094;2023-07-31T20:14:21;17.40;99.90
26212;DHT22;13951;49.516;6.094;2023-07-31T20:16:55;17.40;99.90
26212;DHT22;13951;49.516;6.094;2023-07-31T20:19:28;17.30;99.90
26212;DHT22;13951;49.516;6.094;2023-07-31T20:22:01;17.30;99.90
26212;DHT22;13951;49.516;6.094;2023-07-31T20:24:35;17.30;99.90
26212;DHT22;13951;49.516;6.094;2023-07-31T20:27:08;17.30;99.90
26212;DHT22;13951;49.516;6.094;2023-07-31T20:29:41;17.30;99.90
26212;DHT22;13951;49.516;6.094;2023-07-31T20:32:14;17.40;99.90
26212;DHT22;13951;49.516;6.094;2023-07-31T20:34:47;17.40;99.90
26212;DHT22;13951;49.516;6.094;2023-07-31T20:37:21;17.40;99.90
26212;DHT22;13951;49.516;6.094;2023-07-31T20:39:56;17.40;99.90
26212;DHT22;13951;49.516;6.094;2023-07-31T20:42:30;17.40;99.90
26212;DHT22;13951;49.516;6.094;2023-07-31T20:45:03;17.40;99.90
26212;DHT22;13951;49.516;6.094;2023-07-31T20:47:37;17.40;99.90
26212;DHT22;13951;49.516;6.094;2023-07-31T20:50:11;17.40;99.90
26212;DHT22;13951;49.516;6.094;2023-07-31T20:52:44;17.50;99.90
26212;DHT22;13951;49.516;6.094;2023-07-31T20:55:17;17.40;99.90
26212;DHT22;13951;49.516;6.094;2023-07-31T20:57:51;17.40;99.90
26212;DHT22;13951;49.516;6.094;2023-07-31T21:00:27;17.40;99.90
26212;DHT22;13951;49.516;6.094;2023-07-31T21:03:03;17.40;99.90
26212;DHT22;13951;49.516;6.094;2023-07-31T21:05:37;17.40;99.90
26212;DHT22;13951;49.516;6.094;2023-07-31T21:08:10;17.40;99.90
26212;DHT22;13951;49.516;6.094;2023-07-31T21:10:43;17.40;99.90
26212;DHT22;13951;49.516;6.094;2023-07-31T21:13:17;17.40;99.90
26212;DHT22;13951;49.516;6.094;2023-07-31T21:15:50;17.30;99.90
26212;DHT22;13951;49.516;6.094;2023-07-31T21:18:23;17.40;99.90
26212;DHT22;13951;49.516;6.094;2023-07-31T21:20:57;17.40;99.90
26212;DHT22;13951;49.516;6.094;2023-07-31T21:23:30;17.40;99.90
26212;DHT22;13951;49.516;6.094;2023-07-31T21:26:03;17.40;99.90
26212;DHT22;13951;49.516;6.094;2023-07-31T21:28:36;17.40;99.90
26212;DHT22;13951;49.516;6.094;2023-07-31T21:31:21;17.40;99.90
26212;DHT22;13951;49.516;6.094;2023-07-31T21:34:44;17.30;99.90
26212;DHT22;13951;49.516;6.094;2023-07-31T21:38:20;17.30;99.90
26212;DHT22;13951;49.516;6.094;2023-07-31T21:41:05;17.40;99.90
26212;DHT22;13951;49.516;6.094;2023-07-31T21:43:51;17.30;99.90
26212;DHT22;13951;49.516;6.094;2023-07-31T21:46:52;17.30;99.90
26212;DHT22;13951;49.516;6.094;2023-07-31T21:57:59;17.30;99.90
26212;DHT22;13951;49.516;6.094;2023-07-31T22:01:50;17.30;99.90
26212;DHT22;13951;49.516;6.094;2023-07-31T22:18:13;17.30;99.90
26212;DHT22;13951;49.516;6.094;2023-07-31T22:28:31;17.30;99.90
26212;DHT22;13951;49.516;6.094;2023-07-31T22:31:34;17.30;99.90
26212;DHT22;13951;49.516;6.094;2023-07-31T22:34:31;17.30;99.90
26212;DHT22;13951;49.516;6.094;2023-07-31T22:37:31;17.20;99.90
26212;DHT22;13951;49.516;6.094;2023-07-31T22:44:37;17.20;99.90
26212;DHT22;13951;49.516;6.094;2023-07-31T22:48:41;17.20;99.90
26212;DHT22;13951;49.516;6.094;2023-07-31T22:51:52;17.20;99.90
26212;DHT22;13951;49.516;6.094;2023-07-31T22:58:00;17.30;99.90
26212;DHT22;13951;49.516;6.094;2023-07-31T23:00:35;17.30;99.90
26212;DHT22;13951;49.516;6.094;2023-07-31T23:03:47;17.30;99.90
26212;DHT22;13951;49.516;6.094;2023-07-31T23:06:56;17.30;99.90
26212;DHT22;13951;49.516;6.094;2023-07-31T23:10:10;17.30;99.90
26212;DHT22;13951;49.516;6.094;2023-07-31T23:12:57;17.30;99.90
26212;DHT22;13951;49.516;6.094;2023-07-31T23:16:00;17.30;99.90
26212;DHT22;13951;49.516;6.094;2023-07-31T23:19:16;17.30;99.90
26212;DHT22;13951;49.516;6.094;2023-07-31T23:22:41;17.30;99.90
26212;DHT22;13951;49.516;6.094;2023-07-31T23:25:23;17.30;99.90
26212;DHT22;13951;49.516;6.094;2023-07-31T23:28:01;17.30;99.90
26212;DHT22;13951;49.516;6.094;2023-07-31T23:30:38;17.30;99.90
26212;DHT22;13951;49.516;6.094;2023-07-31T23:33:16;17.30;99.90
26212;DHT22;13951;49.516;6.094;2023-07-31T23:36:21;17.30;99.90
26212;DHT22;13951;49.516;6.094;2023-07-31T23:39:18;17.20;99.90
26212;DHT22;13951;49.516;6.094;2023-07-31T23:41:51;17.20;99.90
26212;DHT22;13951;49.516;6.094;2023-07-31T23:44:24;17.20;99.90
26212;DHT22;13951;49.516;6.094;2023-07-31T23:46:57;17.20;99.90
26212;DHT22;13951;49.516;6.094;2023-07-31T23:49:30;17.20;99.90
26212;DHT22;13951;49.516;6.094;2023-07-31T23:52:03;17.10;99.90
26212;DHT22;13951;49.516;6.094;2023-07-31T23:54:36;17.10;99.90
26212;DHT22;13951;49.516;6.094;2023-07-31T23:57:09;17.10;99.90
26212;DHT22;13951;49.516;6.094;2023-07-31T23:59:42;17.10;99.90
